Time;durP1;ratioP1;P1;durP2;ratioP2;P2;SDS_P1;SDS_P2;PMS_P1;PMS_P2;Temp;Humidity;BMP_temperature;BMP_pressure;BME280_temperature;BME280_humidity;BME280_pressure;Samples;Min_cycle;Max_cycle;Signal;HPM_P1;HPM_P2
2024/02/13 00:00:25;;;;;;;1.42;1.33;;;5.80;80.30;;;;;;5032214;28;20381;-62
2024/02/13 00:02:51;;;;;;;1.30;1.10;;;5.80;80.50;;;;;;5033024;28;20029;-62
2024/02/13 00:05:17;;;;;;;2.08;1.33;;;5.80;80.60;;;;;;5033902;28;20021;-62
2024/02/13 00:07:43;;;;;;;2.88;1.30;;;5.80;80.60;;;;;;5031235;28;20029;-61
2024/02/13 00:10:10;;;;;;;1.42;1.13;;;5.90;80.70;;;;;;5031528;28;20560;-61
2024/02/13 00:12:37;;;;;;;4.60;1.13;;;5.90;80.70;;;;;;5028794;28;20069;-61
2024/02/13 00:15:03;;;;;;;4.03;1.40;;;6.00;80.80;;;;;;5030239;28;20029;-61
2024/02/13 00:17:30;;;;;;;2.38;1.55;;;6.00;80.90;;;;;;5030430;28;20340;-62
2024/02/13 00:19:56;;;;;;;4.13;2.00;;;6.20;81.10;;;;;;5031660;28;20504;-63
2024/02/13 00:22:23;;;;;;;1.38;1.10;;;6.20;81.10;;;;;;5031727;28;20045;-63
2024/02/13 00:24:50;;;;;;;4.68;2.15;;;6.30;81.20;;;;;;5033409;28;20351;-62
2024/02/13 00:27:17;;;;;;;1.85;1.67;;;6.30;81.60;;;;;;5027963;28;20113;-63
2024/02/13 00:29:46;;;;;;;6.63;2.55;;;6.30;81.70;;;;;;5030945;28;20036;-63
2024/02/13 00:32:13;;;;;;;1.67;1.10;;;6.40;81.90;;;;;;5029636;28;20025;-62
2024/02/13 00:34:39;;;;;;;5.28;1.77;;;6.30;81.90;;;;;;5032579;28;20087;-62
2024/02/13 00:37:05;;;;;;;9.63;2.05;;;6.40;82.10;;;;;;5029903;28;20049;-63
2024/02/13 00:39:31;;;;;;;4.90;1.80;;;6.30;82.30;;;;;;5037500;28;20025;-63
2024/02/13 00:41:57;;;;;;;2.75;1.80;;;6.30;82.40;;;;;;5032027;28;20095;-63
2024/02/13 00:44:24;;;;;;;2.97;1.52;;;6.30;82.50;;;;;;5029919;28;20091;-63
2024/02/13 00:46:52;;;;;;;2.95;1.20;;;6.20;82.40;;;;;;5029405;28;20036;-62
2024/02/13 00:49:21;;;;;;;2.30;2.05;;;6.20;82.40;;;;;;5030096;28;20038;-63
2024/02/13 00:51:47;;;;;;;3.40;1.40;;;6.20;82.40;;;;;;5028744;28;20033;-63
2024/02/13 00:54:16;;;;;;;4.88;2.00;;;6.10;82.40;;;;;;5031938;28;20035;-62
2024/02/13 00:56:43;;;;;;;3.90;2.15;;;6.10;82.60;;;;;;5027702;28;20373;-62
2024/02/13 00:59:10;;;;;;;2.85;1.70;;;6.10;82.60;;;;;;5028559;28;20440;-62
2024/02/13 01:01:37;;;;;;;2.80;1.60;;;6.10;82.60;;;;;;5033781;28;20021;-62
2024/02/13 01:04:06;;;;;;;3.10;1.40;;;6.10;82.60;;;;;;5037759;28;20389;-63
2024/02/13 01:06:33;;;;;;;3.20;1.98;;;6.10;82.70;;;;;;5034548;28;20484;-62
2024/02/13 01:09:05;;;;;;;3.75;1.73;;;6.10;82.70;;;;;;5030901;28;20476;-63
2024/02/13 01:11:33;;;;;;;3.15;1.58;;;6.00;82.70;;;;;;5029181;28;20264;-62
2024/02/13 01:14:01;;;;;;;2.03;1.58;;;6.00;82.70;;;;;;5028383;28;20025;-62
2024/02/13 01:16:26;;;;;;;2.13;1.40;;;6.00;82.80;;;;;;5029877;28;20036;-63
2024/02/13 01:18:54;;;;;;;2.33;1.90;;;6.00;82.80;;;;;;5029528;28;20029;-63
2024/02/13 01:21:25;;;;;;;13.40;3.45;;;6.00;82.80;;;;;;5029229;28;20076;-63
2024/02/13 01:23:51;;;;;;;3.80;2.20;;;6.10;83.40;;;;;;5027348;28;20056;-63
2024/02/13 01:26:23;;;;;;;6.35;2.80;;;6.10;83.50;;;;;;5032536;28;20124;-62
2024/02/13 01:28:49;;;;;;;5.35;2.67;;;6.20;83.90;;;;;;5032726;28;20091;-62
2024/02/13 01:31:16;;;;;;;3.08;2.10;;;6.20;83.90;;;;;;5037199;28;20037;-62
2024/02/13 01:33:42;;;;;;;7.60;3.15;;;6.20;84.00;;;;;;5033904;28;20047;-63
2024/02/13 01:36:09;;;;;;;6.72;3.20;;;6.20;83.90;;;;;;5029279;28;20038;-62
2024/02/13 01:38:36;;;;;;;7.85;3.03;;;6.20;84.00;;;;;;5028317;28;20021;-63
2024/02/13 01:41:02;;;;;;;4.88;2.50;;;6.30;84.20;;;;;;5028563;28;20025;-63
2024/02/13 01:43:31;;;;;;;3.40;2.10;;;6.30;84.30;;;;;;5031401;28;20030;-63
2024/02/13 01:45:58;;;;;;;4.68;3.33;;;6.30;84.30;;;;;;5030563;28;20144;-63
2024/02/13 01:48:25;;;;;;;5.95;2.30;;;6.30;84.30;;;;;;5030976;28;20427;-63
2024/02/13 01:50:53;;;;;;;3.47;2.97;;;6.30;84.30;;;;;;5029235;28;20045;-64
2024/02/13 01:53:24;;;;;;;4.50;2.35;;;6.30;84.20;;;;;;5035559;28;20115;-63
2024/02/13 01:55:51;;;;;;;4.60;2.35;;;6.30;84.30;;;;;;5028590;28;20107;-64
2024/02/13 01:58:19;;;;;;;2.67;2.30;;;6.30;84.20;;;;;;5031083;28;20127;-64
2024/02/13 02:00:47;;;;;;;4.45;2.60;;;6.30;84.20;;;;;;5032319;28;20036;-64
2024/02/13 02:03:15;;;;;;;6.30;2.95;;;6.30;84.10;;;;;;5029444;28;20435;-63
2024/02/13 02:05:41;;;;;;;4.57;3.22;;;6.30;84.20;;;;;;5028215;28;20541;-63
2024/02/13 02:08:08;;;;;;;7.97;2.92;;;6.30;84.50;;;;;;5028685;28;20183;-63
2024/02/13 02:10:34;;;;;;;4.85;2.88;;;6.30;84.40;;;;;;5028931;28;20065;-63
2024/02/13 02:13:01;;;;;;;4.30;2.88;;;6.30;84.40;;;;;;5031384;28;20488;-63
2024/02/13 02:15:28;;;;;;;5.25;3.00;;;6.30;84.40;;;;;;5026756;28;20497;-63
2024/02/13 02:17:54;;;;;;;6.90;3.72;;;6.30;84.50;;;;;;5034791;28;20076;-63
2024/02/13 02:20:22;;;;;;;8.85;3.67;;;6.40;84.50;;;;;;5030601;28;20373;-63
2024/02/13 02:22:51;;;;;;;4.45;2.83;;;6.30;84.60;;;;;;5030582;28;20034;-63
2024/02/13 02:25:23;;;;;;;6.78;3.85;;;6.40;84.70;;;;;;5027963;28;20030;-63
2024/02/13 02:27:50;;;;;;;8.57;4.95;;;6.30;84.70;;;;;;5060354;28;20049;-63
2024/02/13 02:30:17;;;;;;;7.65;4.22;;;6.30;84.90;;;;;;5028757;28;20077;-63
2024/02/13 02:32:43;;;;;;;7.22;4.22;;;6.30;85.00;;;;;;5029794;28;20017;-63
2024/02/13 02:35:09;;;;;;;3.80;2.58;;;6.30;85.10;;;;;;5031979;28;20041;-63
2024/02/13 02:37:36;;;;;;;7.82;3.63;;;6.30;85.10;;;;;;5039152;28;20053;-63
2024/02/13 02:40:04;;;;;;;7.53;4.05;;;6.30;85.00;;;;;;5033238;28;20515;-63
2024/02/13 02:42:31;;;;;;;6.10;4.32;;;6.30;85.00;;;;;;5029430;28;20108;-63
2024/02/13 02:44:57;;;;;;;8.65;3.33;;;6.30;84.90;;;;;;5032200;28;20035;-63
2024/02/13 02:47:23;;;;;;;7.15;3.92;;;6.30;84.90;;;;;;5018274;28;20400;-63
2024/02/13 02:49:49;;;;;;;6.70;3.80;;;6.40;85.00;;;;;;5034818;28;20116;-64
2024/02/13 02:52:15;;;;;;;6.05;3.60;;;6.40;85.00;;;;;;5038818;28;20550;-63
2024/02/13 02:54:42;;;;;;;7.22;3.83;;;6.40;85.00;;;;;;5032768;28;20033;-63
2024/02/13 02:57:08;;;;;;;5.40;3.30;;;6.40;85.00;;;;;;5031223;28;20071;-61
2024/02/13 02:59:34;;;;;;;5.53;3.72;;;6.40;84.90;;;;;;5034208;28;20037;-61
2024/02/13 03:02:01;;;;;;;5.28;3.85;;;6.40;84.90;;;;;;5031894;28;20029;-62
2024/02/13 03:04:28;;;;;;;8.40;4.20;;;6.40;84.90;;;;;;5034053;28;20059;-61
2024/02/13 03:06:53;;;;;;;6.75;3.63;;;6.40;85.00;;;;;;5034650;28;20099;-62
2024/02/13 03:09:19;;;;;;;7.70;5.13;;;6.40;85.20;;;;;;5033088;28;20041;-61
2024/02/13 03:11:47;;;;;;;6.75;3.47;;;6.40;85.30;;;;;;5034192;28;20026;-64
2024/02/13 03:14:13;;;;;;;7.97;4.25;;;6.40;85.30;;;;;;5037369;28;20033;-61
2024/02/13 03:16:40;;;;;;;5.45;3.67;;;6.40;85.50;;;;;;5035476;28;20127;-61
2024/02/13 03:19:06;;;;;;;6.82;3.90;;;6.30;85.60;;;;;;5035662;28;20107;-61
2024/02/13 03:21:33;;;;;;;7.35;4.68;;;6.40;85.60;;;;;;5034850;28;20029;-61
2024/02/13 03:23:59;;;;;;;8.23;3.70;;;6.30;85.80;;;;;;5032529;28;20022;-62
2024/02/13 03:26:25;;;;;;;9.13;4.55;;;6.30;85.90;;;;;;5031279;28;20429;-62
2024/02/13 03:28:50;;;;;;;5.57;3.63;;;6.30;85.80;;;;;;5031568;28;20554;-62
2024/02/13 03:31:17;;;;;;;9.07;4.68;;;6.30;85.80;;;;;;5032780;28;20029;-62
2024/02/13 03:33:42;;;;;;;6.70;4.07;;;6.30;85.80;;;;;;5025320;28;20134;-62
2024/02/13 03:36:10;;;;;;;7.95;3.83;;;6.30;85.70;;;;;;5031003;28;20120;-62
2024/02/13 03:38:35;;;;;;;8.48;4.40;;;6.30;85.70;;;;;;5036445;28;20034;-62
2024/02/13 03:41:02;;;;;;;7.47;4.35;;;6.30;85.70;;;;;;5031255;28;20116;-62
2024/02/13 03:43:28;;;;;;;6.05;3.67;;;6.30;85.90;;;;;;5031600;28;20517;-62
2024/02/13 03:45:54;;;;;;;8.52;4.75;;;6.30;86.00;;;;;;5030635;28;20025;-62
2024/02/13 03:48:19;;;;;;;8.60;4.63;;;6.30;86.00;;;;;;5031263;28;20132;-62
2024/02/13 03:50:45;;;;;;;10.80;4.50;;;6.30;86.00;;;;;;5033270;28;20038;-62
2024/02/13 03:53:14;;;;;;;9.90;3.75;;;6.30;86.00;;;;;;5031731;28;20021;-63
2024/02/13 03:55:40;;;;;;;7.60;4.38;;;6.30;86.00;;;;;;5030550;28;20030;-62
2024/02/13 03:58:06;;;;;;;6.25;4.03;;;6.20;86.00;;;;;;5032375;28;20115;-63
2024/02/13 04:00:32;;;;;;;9.90;4.38;;;6.20;86.00;;;;;;5028002;28;20026;-62
2024/02/13 04:02:58;;;;;;;7.03;4.90;;;6.20;86.10;;;;;;5030987;28;20033;-63
2024/02/13 04:05:27;;;;;;;5.47;3.72;;;6.20;86.10;;;;;;5031396;28;20026;-62
2024/02/13 04:07:54;;;;;;;5.57;3.67;;;6.20;86.00;;;;;;5033300;28;20057;-63
2024/02/13 04:10:20;;;;;;;6.20;4.60;;;6.20;86.00;;;;;;5034739;28;20029;-63
2024/02/13 04:12:46;;;;;;;7.18;4.25;;;6.20;86.10;;;;;;5029101;28;20030;-62
2024/02/13 04:15:14;;;;;;;6.43;3.63;;;6.20;86.10;;;;;;5030310;28;20100;-62
2024/02/13 04:17:40;;;;;;;5.47;3.45;;;6.10;86.30;;;;;;5030449;28;20039;-62
2024/02/13 04:20:08;;;;;;;6.38;3.90;;;6.10;86.20;;;;;;5031168;28;20492;-62
2024/02/13 04:22:35;;;;;;;6.38;4.32;;;6.10;86.20;;;;;;5035005;28;20032;-63
2024/02/13 04:25:01;;;;;;;6.72;4.05;;;6.10;86.20;;;;;;5027833;28;20047;-62
2024/02/13 04:27:27;;;;;;;7.70;4.38;;;6.10;86.50;;;;;;5036766;28;20056;-62
2024/02/13 04:29:53;;;;;;;7.88;3.75;;;6.10;86.50;;;;;;5021361;28;20088;-62
2024/02/13 04:32:19;;;;;;;8.68;4.07;;;6.10;86.80;;;;;;5023536;28;20138;-62
2024/02/13 04:34:45;;;;;;;6.28;4.50;;;6.10;86.80;;;;;;5033271;28;20420;-62
2024/02/13 04:37:11;;;;;;;9.98;4.97;;;6.00;86.80;;;;;;5037900;28;20033;-62
2024/02/13 04:39:37;;;;;;;7.38;4.32;;;6.00;86.80;;;;;;5013744;28;20034;-63
2024/02/13 04:42:03;;;;;;;7.03;4.35;;;6.00;86.80;;;;;;5036934;28;20064;-62
2024/02/13 04:44:29;;;;;;;6.00;3.95;;;6.00;86.80;;;;;;5039683;28;20473;-62
2024/02/13 04:46:55;;;;;;;8.70;4.47;;;6.10;86.80;;;;;;5037312;28;20043;-62
2024/02/13 04:49:22;;;;;;;6.35;3.45;;;6.00;86.80;;;;;;5038769;28;20025;-62
2024/02/13 04:51:48;;;;;;;8.18;4.82;;;6.00;86.80;;;;;;5039228;28;20060;-63
2024/02/13 04:54:14;;;;;;;6.75;4.38;;;6.00;86.90;;;;;;5040403;28;20068;-62
2024/02/13 04:56:40;;;;;;;8.90;4.25;;;6.00;86.90;;;;;;5039586;28;20041;-62
2024/02/13 04:59:07;;;;;;;7.85;4.25;;;6.00;87.00;;;;;;5035169;28;20022;-62
2024/02/13 05:01:39;;;;;;;6.53;4.53;;;6.00;86.90;;;;;;5028737;28;20029;-62
2024/02/13 05:09:24;;;;;;;6.38;4.40;;;6.00;86.90;;;;;;5030408;28;20508;-62
2024/02/13 05:11:50;;;;;;;8.85;3.60;;;6.00;86.90;;;;;;5029647;28;20033;-62
2024/02/13 05:14:16;;;;;;;7.85;4.18;;;6.00;86.90;;;;;;5027579;28;20542;-62
2024/02/13 05:16:43;;;;;;;6.13;4.32;;;6.00;86.80;;;;;;5029580;28;20037;-62
2024/02/13 05:19:09;;;;;;;9.32;5.38;;;6.00;87.00;;;;;;5029639;28;20025;-63
2024/02/13 05:21:35;;;;;;;5.47;3.47;;;6.00;87.10;;;;;;5025842;28;20490;-62
2024/02/13 05:24:04;;;;;;;11.48;4.53;;;6.00;87.10;;;;;;5033697;28;20022;-62
2024/02/13 05:26:31;;;;;;;7.72;4.60;;;6.00;86.90;;;;;;5038463;28;20075;-62
2024/02/13 05:28:57;;;;;;;7.38;3.90;;;6.00;87.00;;;;;;5022284;28;20048;-62
2024/02/13 05:31:23;;;;;;;9.23;4.15;;;6.00;87.00;;;;;;5040902;28;20029;-62
2024/02/13 05:33:50;;;;;;;7.88;4.70;;;6.00;87.10;;;;;;5035156;28;20041;-63
2024/02/13 05:36:16;;;;;;;7.72;4.43;;;5.90;87.10;;;;;;5027973;28;20557;-63
2024/02/13 05:38:49;;;;;;;5.10;3.72;;;6.00;87.20;;;;;;5034801;28;20017;-62
2024/02/13 05:41:17;;;;;;;6.35;3.78;;;6.00;87.20;;;;;;5028078;28;20026;-63
2024/02/13 05:43:43;;;;;;;6.20;3.10;;;5.90;87.10;;;;;;5027748;28;20105;-62
2024/02/13 05:46:09;;;;;;;4.65;3.13;;;6.00;87.10;;;;;;5027875;28;20041;-62
2024/02/13 05:48:40;;;;;;;7.88;3.60;;;6.00;87.00;;;;;;5033767;28;20034;-64
2024/02/13 05:51:09;;;;;;;6.20;3.90;;;6.00;87.50;;;;;;5027856;28;20037;-63
2024/02/13 05:53:34;;;;;;;6.47;4.40;;;6.00;86.90;;;;;;5024580;28;20042;-64
2024/02/13 05:56:00;;;;;;;9.68;4.75;;;6.00;87.00;;;;;;5023683;28;20038;-63
2024/02/13 05:58:27;;;;;;;8.45;3.65;;;6.00;87.10;;;;;;5028937;28;20022;-64
2024/02/13 06:00:54;;;;;;;8.65;4.35;;;6.00;87.10;;;;;;5028869;28;20432;-63
2024/02/13 06:03:20;;;;;;;9.38;3.38;;;6.00;87.00;;;;;;5029463;28;20435;-63
2024/02/13 06:05:46;;;;;;;3.55;2.97;;;6.00;87.00;;;;;;5028751;28;20069;-63
2024/02/13 06:08:12;;;;;;;11.98;3.95;;;6.00;87.00;;;;;;5028608;28;20029;-63
2024/02/13 06:10:39;;;;;;;11.68;3.85;;;6.00;87.00;;;;;;5026420;28;20042;-63
2024/02/13 06:13:05;;;;;;;6.38;4.13;;;6.00;87.00;;;;;;5027243;28;20034;-63
2024/02/13 06:15:31;;;;;;;5.13;3.35;;;6.00;86.90;;;;;;5024384;28;20041;-63
2024/02/13 06:17:56;;;;;;;6.32;3.65;;;6.00;87.00;;;;;;5028582;28;20105;-63
2024/02/13 06:20:22;;;;;;;6.78;3.47;;;6.00;87.00;;;;;;5028225;28;20102;-63
2024/02/13 06:22:48;;;;;;;6.13;4.22;;;6.00;87.00;;;;;;5028845;28;20029;-62
2024/02/13 06:25:14;;;;;;;12.10;4.40;;;6.00;87.10;;;;;;5024982;28;20037;-61
2024/02/13 06:27:40;;;;;;;5.32;3.03;;;6.00;87.10;;;;;;5026867;28;20030;-61
2024/02/13 06:30:07;;;;;;;6.40;3.35;;;5.90;87.00;;;;;;5023696;28;20057;-61
2024/02/13 06:32:33;;;;;;;5.97;3.67;;;6.00;87.00;;;;;;5028539;28;20030;-64
2024/02/13 06:34:58;;;;;;;5.18;3.80;;;6.00;86.90;;;;;;5022325;28;20021;-61
2024/02/13 06:37:24;;;;;;;6.28;3.40;;;6.00;87.00;;;;;;5028498;28;20052;-61
2024/02/13 06:39:50;;;;;;;4.97;3.00;;;6.00;87.10;;;;;;5028508;28;20061;-62
2024/02/13 06:42:16;;;;;;;11.60;5.10;;;5.90;87.00;;;;;;5027544;28;20025;-62
2024/02/13 06:44:43;;;;;;;7.97;4.22;;;5.90;87.10;;;;;;5028375;28;20029;-62
2024/02/13 06:47:10;;;;;;;8.25;4.20;;;5.90;87.10;;;;;;5028616;28;20108;-62
2024/02/13 06:49:39;;;;;;;4.35;2.72;;;6.00;87.30;;;;;;5027040;28;20607;-62
2024/02/13 06:52:06;;;;;;;4.43;3.15;;;6.00;87.20;;;;;;5028384;28;20034;-62
2024/02/13 06:54:32;;;;;;;7.90;4.05;;;5.90;87.00;;;;;;5027126;28;20044;-62
2024/02/13 06:56:58;;;;;;;5.60;3.17;;;6.00;87.10;;;;;;5059885;28;20037;-62
2024/02/13 06:59:24;;;;;;;9.02;3.17;;;6.00;87.10;;;;;;5028714;28;20125;-62
2024/02/13 07:01:50;;;;;;;13.65;3.20;;;5.90;87.00;;;;;;5028479;28;20108;-62
2024/02/13 07:04:16;;;;;;;6.70;3.50;;;6.00;87.20;;;;;;5026301;28;20168;-62
2024/02/13 07:06:42;;;;;;;4.30;2.80;;;6.00;87.20;;;;;;5028360;28;20034;-62
2024/02/13 07:09:09;;;;;;;3.58;2.55;;;6.00;87.20;;;;;;5022481;28;20644;-62
2024/02/13 07:11:35;;;;;;;6.57;3.35;;;6.00;87.20;;;;;;5021314;28;20405;-62
2024/02/13 07:14:01;;;;;;;5.50;3.22;;;6.00;87.20;;;;;;5028053;28;20036;-62
2024/02/13 07:16:26;;;;;;;8.75;3.38;;;6.00;87.10;;;;;;5028157;28;20034;-62
2024/02/13 07:18:52;;;;;;;5.30;2.53;;;6.00;87.10;;;;;;5024615;28;20372;-62
2024/02/13 07:21:19;;;;;;;6.65;2.60;;;6.00;87.10;;;;;;5029149;28;20154;-62
2024/02/13 07:23:45;;;;;;;8.93;2.47;;;6.00;87.10;;;;;;5031078;28;20026;-62
2024/02/13 07:26:11;;;;;;;4.80;2.63;;;6.10;87.00;;;;;;5032132;28;20116;-62
2024/02/13 07:28:39;;;;;;;4.03;2.28;;;6.10;86.90;;;;;;5038430;28;20088;-62
2024/02/13 07:31:05;;;;;;;6.35;2.88;;;6.10;86.90;;;;;;5031782;28;20134;-62
2024/02/13 07:33:31;;;;;;;4.28;2.47;;;6.10;86.90;;;;;;5028066;28;20026;-62
2024/02/13 07:35:59;;;;;;;3.15;2.10;;;6.00;86.90;;;;;;5039568;28;20044;-62
2024/02/13 07:38:24;;;;;;;6.60;2.92;;;6.10;87.00;;;;;;5032115;28;20424;-62
2024/02/13 07:40:50;;;;;;;6.15;2.88;;;6.10;86.90;;;;;;5031578;28;20087;-62
2024/02/13 07:43:16;;;;;;;4.45;3.03;;;6.00;87.00;;;;;;5031523;28;20132;-62
2024/02/13 07:45:42;;;;;;;16.30;2.60;;;6.10;87.10;;;;;;5029811;28;20029;-62
2024/02/13 07:48:11;;;;;;;7.97;2.53;;;6.10;87.10;;;;;;5031141;28;20021;-63
2024/02/13 07:50:37;;;;;;;4.55;2.58;;;6.10;87.00;;;;;;5036927;28;20029;-62
2024/02/13 07:53:06;;;;;;;4.22;2.25;;;6.20;87.10;;;;;;5030938;28;20113;-62
2024/02/13 07:55:35;;;;;;;5.85;3.08;;;6.20;87.00;;;;;;5029455;28;20038;-63
2024/02/13 07:58:01;;;;;;;3.03;1.85;;;6.20;87.20;;;;;;5027379;28;20033;-62
2024/02/13 08:00:29;;;;;;;4.40;1.98;;;6.30;87.20;;;;;;5031091;28;20061;-63
2024/02/13 08:02:55;;;;;;;2.92;1.60;;;6.30;87.10;;;;;;5031236;28;20053;-62
2024/02/13 08:05:20;;;;;;;4.10;2.17;;;6.30;87.10;;;;;;5030380;28;20025;-63
2024/02/13 08:07:46;;;;;;;7.65;1.92;;;6.30;87.00;;;;;;5033319;28;20036;-62
2024/02/13 08:10:13;;;;;;;4.13;2.50;;;6.30;86.90;;;;;;5035149;28;20424;-63
2024/02/13 08:12:39;;;;;;;5.30;2.55;;;6.40;87.00;;;;;;5029282;28;20071;-62
2024/02/13 08:15:06;;;;;;;4.07;2.20;;;6.40;87.00;;;;;;5027813;28;20033;-62
2024/02/13 08:17:33;;;;;;;2.00;1.38;;;6.40;87.00;;;;;;5029292;28;20063;-62
2024/02/13 08:19:59;;;;;;;9.27;2.75;;;6.50;87.10;;;;;;5028147;28;20481;-62
2024/02/13 08:22:25;;;;;;;4.47;1.73;;;6.50;87.00;;;;;;5031166;28;20097;-62
2024/02/13 08:24:51;;;;;;;4.05;1.70;;;6.60;86.90;;;;;;5025259;28;20044;-62
2024/02/13 08:27:18;;;;;;;6.38;2.13;;;6.60;86.80;;;;;;5029160;28;20105;-63
2024/02/13 08:29:44;;;;;;;3.67;2.60;;;6.70;86.80;;;;;;5056672;28;20386;-62
2024/02/13 08:32:10;;;;;;;4.75;2.25;;;6.70;86.70;;;;;;5022184;28;20025;-62
2024/02/13 08:34:36;;;;;;;4.20;2.30;;;6.70;86.70;;;;;;5029080;28;20063;-62
2024/02/13 08:37:03;;;;;;;4.63;1.60;;;6.80;86.60;;;;;;5032446;28;20037;-62
2024/02/13 08:39:29;;;;;;;4.43;1.90;;;6.80;86.60;;;;;;5035840;28;20116;-63
2024/02/13 08:41:55;;;;;;;2.85;1.65;;;6.90;86.70;;;;;;5024467;28;20148;-62
2024/02/13 08:44:21;;;;;;;4.22;1.83;;;6.90;86.70;;;;;;5009243;28;20493;-62
2024/02/13 08:46:47;;;;;;;7.63;2.75;;;6.90;86.60;;;;;;5015967;28;20022;-62
2024/02/13 08:49:13;;;;;;;7.78;2.28;;;7.00;86.50;;;;;;5050502;28;20018;-62
2024/02/13 08:51:38;;;;;;;2.53;1.50;;;7.10;86.50;;;;;;5020558;28;20033;-62
2024/02/13 08:54:04;;;;;;;3.65;1.95;;;7.20;86.30;;;;;;5018045;28;20469;-62
2024/02/13 08:56:30;;;;;;;3.80;1.85;;;7.30;86.10;;;;;;5010033;28;20554;-63
2024/02/13 08:58:56;;;;;;;4.60;1.85;;;7.40;86.60;;;;;;5012143;28;20142;-63
2024/02/13 09:01:22;;;;;;;6.28;2.15;;;7.50;85.70;;;;;;5014791;28;20087;-62
2024/02/13 09:03:48;;;;;;;4.07;2.40;;;7.50;85.60;;;;;;5020104;28;20029;-63
2024/02/13 09:06:15;;;;;;;5.40;2.55;;;7.50;85.40;;;;;;5030529;28;20033;-63
2024/02/13 09:08:43;;;;;;;9.40;2.35;;;7.50;85.20;;;;;;5029155;28;20037;-63
2024/02/13 09:11:11;;;;;;;1.90;1.48;;;7.40;85.40;;;;;;5029595;28;20041;-63
2024/02/13 09:13:38;;;;;;;6.05;1.58;;;7.40;85.40;;;;;;5023771;28;20106;-63
2024/02/13 09:16:05;;;;;;;5.32;1.95;;;7.40;85.70;;;;;;5027805;28;20041;-63
2024/02/13 09:18:31;;;;;;;5.60;2.03;;;7.50;85.70;;;;;;5027787;28;20037;-63
2024/02/13 09:20:58;;;;;;;2.97;1.40;;;7.60;85.50;;;;;;5028468;28;20448;-65
2024/02/13 09:23:27;;;;;;;3.28;1.98;;;7.70;85.30;;;;;;5028759;28;20112;-67
2024/02/13 09:25:55;;;;;;;4.82;1.35;;;8.00;85.10;;;;;;5028553;28;20518;-69
2024/02/13 09:28:24;;;;;;;2.97;1.85;;;8.10;84.40;;;;;;5025822;28;20033;-70
2024/02/13 09:30:50;;;;;;;4.72;1.50;;;8.20;84.30;;;;;;5031005;28;20041;-66
2024/02/13 09:33:18;;;;;;;3.47;1.35;;;8.20;84.20;;;;;;5028508;28;20035;-64
2024/02/13 09:35:44;;;;;;;3.40;2.15;;;8.40;84.20;;;;;;5027956;28;20041;-64
2024/02/13 09:38:10;;;;;;;4.25;2.10;;;8.50;83.50;;;;;;5028862;28;20033;-65
2024/02/13 09:40:37;;;;;;;2.33;1.55;;;8.60;83.50;;;;;;5031536;28;20061;-64
2024/02/13 09:43:03;;;;;;;3.15;1.70;;;8.70;83.30;;;;;;5036111;28;20053;-64
2024/02/13 09:45:29;;;;;;;3.38;1.77;;;8.80;82.80;;;;;;5032442;28;20028;-63
2024/02/13 09:48:03;;;;;;;3.70;1.92;;;8.80;82.50;;;;;;5031501;28;20037;-62
2024/02/13 09:50:37;;;;;;;5.43;1.90;;;8.90;82.60;;;;;;5037196;28;20017;-63
2024/02/13 09:53:06;;;;;;;3.83;1.60;;;8.90;82.20;;;;;;5032336;28;20354;-63
2024/02/13 09:55:34;;;;;;;2.42;1.40;;;9.00;82.10;;;;;;5032438;28;20028;-63
2024/02/13 09:58:00;;;;;;;3.78;1.45;;;9.00;82.00;;;;;;5031058;28;20477;-68
2024/02/13 10:00:27;;;;;;;4.32;2.00;;;8.90;81.90;;;;;;5033905;28;20051;-63
2024/02/13 10:02:54;;;;;;;1.65;1.55;;;9.00;82.00;;;;;;5037159;28;20457;-64
2024/02/13 10:05:20;;;;;;;1.27;1.13;;;9.00;82.20;;;;;;5033465;28;20373;-64
2024/02/13 10:07:46;;;;;;;6.05;2.10;;;9.00;81.90;;;;;;5068368;28;20025;-64
2024/02/13 10:10:12;;;;;;;2.30;1.38;;;9.10;81.90;;;;;;5045206;28;20040;-63
2024/02/13 10:12:58;;;;;;;5.60;1.00;;;9.20;81.90;;;;;;5029846;28;20898;-63
2024/02/13 10:15:24;;;;;;;6.78;2.13;;;9.30;81.90;;;;;;5028357;28;20453;-63
2024/02/13 10:17:51;;;;;;;1.55;1.23;;;9.30;81.60;;;;;;5023722;28;20036;-63
2024/02/13 10:20:20;;;;;;;1.15;0.80;;;9.40;81.50;;;;;;5029778;28;20374;-63
2024/02/13 10:22:50;;;;;;;4.15;2.45;;;9.40;81.20;;;;;;5016362;28;20025;-63
2024/02/13 10:25:21;;;;;;;2.17;1.55;;;9.40;80.90;;;;;;5018998;28;20041;-64
2024/02/13 10:27:48;;;;;;;2.55;1.13;;;9.30;80.90;;;;;;5015660;28;20029;-63
2024/02/13 10:30:25;;;;;;;4.68;1.10;;;9.40;81.30;;;;;;5008663;28;20046;-63
2024/02/13 10:32:52;;;;;;;3.13;1.30;;;9.60;81.00;;;;;;5015567;28;20056;-63
2024/02/13 10:35:22;;;;;;;3.08;1.40;;;9.80;80.40;;;;;;5018535;28;20041;-63
2024/02/13 10:37:49;;;;;;;2.85;1.20;;;10.00;80.00;;;;;;5025903;28;20030;-64
2024/02/13 10:40:19;;;;;;;4.93;1.75;;;10.20;79.50;;;;;;5025522;28;20037;-63
2024/02/13 10:42:45;;;;;;;1.73;1.38;;;10.30;78.70;;;;;;5013721;28;20029;-64
2024/02/13 10:45:14;;;;;;;6.43;1.00;;;10.40;78.40;;;;;;5018841;28;20406;-63
2024/02/13 10:47:49;;;;;;;2.28;1.40;;;10.50;78.30;;;;;;5022608;28;20038;-63
2024/02/13 10:50:15;;;;;;;2.40;1.30;;;10.70;77.50;;;;;;5018518;28;20112;-68
2024/02/13 10:52:42;;;;;;;2.35;1.60;;;10.70;77.10;;;;;;5021650;28;20041;-68
2024/02/13 10:55:10;;;;;;;1.88;1.00;;;10.80;77.20;;;;;;5013076;28;20033;-68
2024/02/13 10:57:37;;;;;;;4.38;1.92;;;11.00;77.50;;;;;;5024838;28;20040;-68
2024/02/13 11:00:08;;;;;;;4.32;1.60;;;11.20;76.50;;;;;;5053751;28;20061;-68
2024/02/13 11:02:36;;;;;;;2.13;1.00;;;11.30;75.90;;;;;;5013655;28;20042;-68
2024/02/13 11:05:08;;;;;;;3.65;1.05;;;11.10;75.20;;;;;;5026082;28;20065;-68
2024/02/13 11:07:34;;;;;;;;;;;11.10;75.40;;;;;;5021470;28;20707;-66
2024/02/13 11:10:05;;;;;;;1.58;1.05;;;11.10;75.40;;;;;;5026779;28;19960;-68
2024/02/13 11:12:44;;;;;;;2.95;1.05;;;11.10;75.70;;;;;;5019024;28;20033;-68
2024/02/13 11:15:17;;;;;;;2.05;1.35;;;11.30;75.80;;;;;;5023392;28;20041;-68
2024/02/13 11:17:47;;;;;;;2.20;1.63;;;11.40;75.60;;;;;;5027794;28;20038;-68
2024/02/13 11:20:14;;;;;;;3.22;1.60;;;11.50;75.30;;;;;;5027239;28;20030;-68
2024/02/13 11:22:59;;;;;;;4.35;1.10;;;11.60;74.70;;;;;;5009898;28;20030;-68
2024/02/13 11:25:29;;;;;;;1.75;1.00;;;11.70;73.90;;;;;;5010715;28;20075;-69
2024/02/13 11:28:03;;;;;;;2.88;1.15;;;11.70;73.40;;;;;;5024402;28;20553;-63
2024/02/13 11:30:29;;;;;;;2.72;0.88;;;11.90;73.80;;;;;;5027468;28;20068;-63
2024/02/13 11:33:01;;;;;;;3.70;1.67;;;12.10;72.60;;;;;;5031827;28;20041;-63
2024/02/13 11:35:44;;;;;;;7.43;1.75;;;12.20;72.20;;;;;;5030860;28;20443;-61
2024/02/13 11:38:12;;;;;;;4.03;1.13;;;12.40;71.80;;;;;;5021289;28;20378;-63
2024/02/13 11:40:42;;;;;;;1.67;1.17;;;12.60;71.70;;;;;;5025786;28;20038;-64
2024/02/13 11:43:25;;;;;;;4.10;1.45;;;12.80;71.20;;;;;;5027350;28;20029;-64
2024/02/13 11:45:52;;;;;;;8.38;1.50;;;12.90;70.50;;;;;;5027645;28;20025;-63
2024/02/13 11:48:20;;;;;;;4.00;1.40;;;13.00;69.30;;;;;;5040432;28;20396;-63
2024/02/13 11:50:49;;;;;;;3.47;1.13;;;13.00;69.60;;;;;;5026900;28;20018;-61
2024/02/13 11:53:17;;;;;;;1.98;0.95;;;12.90;68.50;;;;;;5026850;28;20030;-60
2024/02/13 11:55:47;;;;;;;6.15;1.05;;;12.80;69.40;;;;;;5026432;28;20065;-60
2024/02/13 11:58:21;;;;;;;1.30;1.02;;;13.00;69.70;;;;;;5030934;28;20056;-60
2024/02/13 12:01:05;;;;;;;2.42;1.02;;;13.10;68.70;;;;;;5031634;28;20151;-60
2024/02/13 12:03:33;;;;;;;3.85;1.27;;;13.20;68.70;;;;;;5027802;28;20577;-60
2024/02/13 12:06:00;;;;;;;2.58;1.63;;;13.30;67.40;;;;;;5028217;28;20030;-63
2024/02/13 12:08:30;;;;;;;2.40;1.30;;;13.20;67.30;;;;;;5033107;28;20041;-63
2024/02/13 12:11:03;;;;;;;3.85;1.10;;;13.00;67.40;;;;;;5020296;28;20040;-62
2024/02/13 12:13:30;;;;;;;2.65;1.27;;;12.90;68.40;;;;;;5017926;28;20036;-62
2024/02/13 12:15:58;;;;;;;0.52;0.52;;;12.90;68.40;;;;;;5013608;28;20037;-62
2024/02/13 12:18:27;;;;;;;2.75;0.90;;;13.20;69.20;;;;;;5026884;28;20034;-65
2024/02/13 12:20:54;;;;;;;1.77;1.02;;;13.70;66.70;;;;;;5013552;28;20036;-64
2024/02/13 12:23:20;;;;;;;3.55;1.10;;;13.80;64.80;;;;;;5019739;28;20025;-64
2024/02/13 12:25:46;;;;;;;4.65;1.10;;;13.70;65.70;;;;;;5015510;28;20448;-68
2024/02/13 12:28:13;;;;;;;4.78;1.42;;;13.80;65.70;;;;;;5018423;28;20032;-68
2024/02/13 12:30:50;;;;;;;1.92;0.88;;;14.30;65.20;;;;;;4999928;28;20450;-68
2024/02/13 12:33:20;;;;;;;1.40;0.82;;;15.30;64.40;;;;;;5013265;28;20030;-68
2024/02/13 12:36:02;;;;;;;5.80;0.80;;;15.80;62.00;;;;;;5023186;28;20026;-68
2024/02/13 12:38:29;;;;;;;1.90;1.15;;;15.80;60.90;;;;;;5021449;28;20086;-68
2024/02/13 12:40:55;;;;;;;2.97;1.23;;;15.20;60.70;;;;;;5022090;28;20481;-68
2024/02/13 12:43:27;;;;;;;1.73;0.80;;;14.70;61.80;;;;;;5017362;28;20133;-68
2024/02/13 12:45:55;;;;;;;6.43;1.27;;;14.10;62.70;;;;;;5038268;28;20026;-68
2024/02/13 12:48:22;;;;;;;3.35;1.25;;;13.60;64.10;;;;;;5016884;28;20049;-68
2024/02/13 12:50:49;;;;;;;1.55;0.80;;;13.40;64.60;;;;;;5010277;28;20021;-68
2024/02/13 12:53:18;;;;;;;2.15;1.15;;;13.20;65.00;;;;;;5027423;28;20052;-63
2024/02/13 12:55:46;;;;;;;1.60;0.90;;;13.80;65.20;;;;;;5017428;28;20017;-63
2024/02/13 12:58:12;;;;;;;0.55;0.55;;;15.90;62.60;;;;;;5009344;28;20030;-63
2024/02/13 13:00:45;;;;;;;1.63;0.70;;;18.30;57.40;;;;;;5025711;28;20095;-63